createdAt,value
2023-02-14T00:06:02.460Z,63
2023-02-14T00:21:02.421Z,64
2023-02-14T00:36:02.349Z,64
2023-02-14T00:51:02.363Z,64
2023-02-14T01:06:02.341Z,64
2023-02-14T01:21:02.344Z,64
2023-02-14T01:36:02.303Z,64
2023-02-14T01:51:02.463Z,64
2023-02-14T02:06:02.277Z,65
2023-02-14T02:21:02.276Z,65
2023-02-14T02:36:02.308Z,65
2023-02-14T02:51:02.467Z,65
2023-02-14T03:06:02.257Z,65
2023-02-14T03:21:02.564Z,65
2023-02-14T03:36:02.273Z,66
2023-02-14T03:51:02.428Z,66
2023-02-14T04:06:02.200Z,67
2023-02-14T04:21:02.398Z,68
2023-02-14T04:36:02.193Z,68
2023-02-14T04:51:02.437Z,68
2023-02-14T05:06:02.171Z,69
2023-02-14T05:21:02.439Z,70
2023-02-14T05:36:02.140Z,70
2023-02-14T05:51:02.241Z,71
2023-02-14T06:06:02.148Z,72
2023-02-14T06:21:02.434Z,72
2023-02-14T06:36:02.111Z,73
2023-02-14T06:51:02.445Z,74
2023-02-14T07:06:02.109Z,74
2023-02-14T07:21:02.636Z,74
2023-02-14T07:36:02.094Z,74
2023-02-14T07:51:02.656Z,73
2023-02-14T08:06:02.087Z,71
2023-02-14T08:21:02.415Z,70
2023-02-14T08:36:02.015Z,69
2023-02-14T08:51:02.293Z,68
2023-02-14T09:06:01.998Z,66
2023-02-14T09:21:02.404Z,66
2023-02-14T09:36:01.955Z,66
2023-02-14T09:51:02.296Z,67
2023-02-14T10:06:01.921Z,67
2023-02-14T10:21:02.398Z,67
2023-02-14T10:36:01.918Z,66
2023-02-14T10:51:02.301Z,64
2023-02-14T11:06:01.860Z,62
2023-02-14T11:21:01.868Z,61
2023-02-14T11:36:01.835Z,60
2023-02-14T11:51:02.003Z,59
2023-02-14T12:06:01.784Z,59
2023-02-14T12:21:02.098Z,58
2023-02-14T12:36:01.795Z,58
2023-02-14T12:51:02.221Z,58
2023-02-14T13:06:01.710Z,58
2023-02-14T13:21:02.053Z,58
2023-02-14T13:36:01.939Z,58
2023-02-14T13:51:01.927Z,57
2023-02-14T14:06:02.033Z,57
2023-02-14T14:21:01.584Z,57
2023-02-14T14:36:01.914Z,57
2023-02-14T14:51:01.588Z,57
2023-02-14T15:06:01.861Z,57
2023-02-14T15:21:01.940Z,56
2023-02-14T15:36:01.478Z,56
2023-02-14T15:51:01.752Z,56
2023-02-14T16:06:01.416Z,56
2023-02-14T16:21:01.801Z,56
2023-02-14T16:36:01.367Z,57
2023-02-14T16:51:01.648Z,56
2023-02-14T17:06:01.339Z,55
2023-02-14T17:21:01.612Z,55
2023-02-14T17:36:01.399Z,56
2023-02-14T17:51:01.673Z,56
2023-02-14T18:06:01.254Z,56
2023-02-14T18:21:01.594Z,57
2023-02-14T18:36:01.204Z,57
2023-02-14T18:51:01.606Z,57
2023-02-14T19:06:01.168Z,57
2023-02-14T19:21:01.450Z,58
2023-02-14T19:36:01.151Z,58
2023-02-14T19:51:01.653Z,58
2023-02-14T20:06:01.120Z,59
2023-02-14T20:21:01.488Z,59
2023-02-14T20:36:01.068Z,59
2023-02-14T20:51:01.395Z,59
2023-02-14T21:06:01.055Z,60
2023-02-14T21:21:01.518Z,60
2023-02-14T21:36:01.016Z,60
2023-02-14T21:51:01.368Z,61
2023-02-14T22:06:01.006Z,61
2023-02-14T22:21:01.236Z,61
2023-02-14T22:36:01.178Z,61
2023-02-14T22:51:00.976Z,61
2023-02-14T23:06:01.186Z,62
2023-02-14T23:21:00.970Z,62
2023-02-14T23:36:01.246Z,63
2023-02-14T23:51:00.921Z,63
